Latest Weather Observations for South Channel Island

IDV60901

Issued at 1:21 am EST Monday 27 June 2016 (issued every 10 minutes, with the page automatically refreshed every 10 minutes)

About weather observations | Map of Melbourne area stations | Latest observations for Melbourne area | Other Formats
Station Details ID: 086344 Name: SOUTH CHANNEL ISLAND Lat: -38.31 Lon: 144.80 Height: 9.0 m
Data from the previous 72 hours. | See also: Recent months for locations in Victoria
Date/Time
EST
Temp
°C
App
Temp
°C
Dew
Point
°C
Rel
Hum
%
Delta-T
°C
Wind Press
QNH
hPa
Press
MSL
hPa
Rain since
9am
mm
Dir  Spd
km/h
Gust
km/h
Spd
kts
Gust
kts
27/01:00am - - - - - NNW 41 48 22 26 - - -
27/12:30am - - - - - NNW 41 48 22 26 - - -
27/12:00am - - - - - NNW 41 48 22 26 - - -
 
Date/Time
EST
Temp
°C
App
Temp
°C
Dew
Point
°C
Rel
Hum
%
Delta-T
°C
Wind Press
QNH
hPa
Press
MSL
hPa
Rain since
9am
mm
Dir  Spd
km/h
Gust
km/h
Spd
kts
Gust
kts
26/11:30pm - - - - - NNW 41 50 22 27 - - -
26/11:00pm - - - - - NNW 43 50 23 27 - - -
26/10:30pm - - - - - NNW 46 52 25 28 - - -
26/10:00pm - - - - - N 44 52 24 28 - - -
26/09:30pm - - - - - N 44 50 24 27 - - -
26/09:00pm - - - - - N 43 48 23 26 - - -
26/08:30pm - - - - - N 41 48 22 26 - - -
26/08:00pm - - - - - N 41 44 22 24 - - -
26/07:30pm - - - - - N 39 43 21 23 - - -
26/07:00pm - - - - - N 37 43 20 23 - - -
26/06:30pm - - - - - N 37 43 20 23 - - -
26/06:00pm - - - - - N 35 41 19 22 - - -
26/05:30pm - - - - - N 37 43 20 23 - - -
26/05:00pm - - - - - NNW 39 46 21 25 - - -
26/04:30pm - - - - - NNW 37 44 20 24 - - -
26/04:00pm - - - - - NNW 33 39 18 21 - - -
26/03:30pm - - - - - NW 37 43 20 23 - - -
26/03:00pm - - - - - NW 32 46 17 25 - - -
26/02:30pm - - - - - NNW 35 41 19 22 - - -
26/02:00pm - - - - - N 32 37 17 20 - - -
26/01:30pm - - - - - N 32 39 17 21 - - -
26/01:00pm - - - - - N 30 35 16 19 - - -
26/12:30pm - - - - - N 28 32 15 17 - - -
26/12:00pm - - - - - N 30 32 16 17 - - -
26/11:30am - - - - - N 28 33 15 18 - - -
26/11:00am - - - - - N 30 33 16 18 - - -
26/10:30am - - - - - N 32 35 17 19 - - -
26/10:00am - - - - - N 32 33 17 18 - - -
26/09:30am - - - - - N 30 33 16 18 - - -
26/09:00am - - - - - N 30 33 16 18 - - -
26/08:30am - - - - - N 32 33 17 18 - - -
26/08:00am - - - - - N 28 30 15 16 - - -
26/07:30am - - - - - N 22 26 12 14 - - -
26/07:00am - - - - - N 22 26 12 14 - - -
26/06:30am - - - - - N 24 28 13 15 - - -
26/06:00am - - - - - N 24 28 13 15 - - -
26/05:30am - - - - - NNW 20 24 11 13 - - -
26/05:00am - - - - - NW 15 20 8 11 - - -
26/04:30am - - - - - NW 13 17 7 9 - - -
26/04:00am - - - - - WNW 17 20 9 11 - - -
26/03:30am - - - - - NW 15 19 8 10 - - -
26/03:00am - - - - - NW 20 24 11 13 - - -
26/02:30am - - - - - NW 20 26 11 14 - - -
26/02:00am - - - - - NW 20 24 11 13 - - -
26/01:30am - - - - - NW 17 20 9 11 - - -
26/01:00am - - - - - NNW 20 22 11 12 - - -
26/12:30am - - - - - NNW 20 24 11 13 - - -
26/12:00am - - - - - NNW 20 24 11 13 - - -
 
Date/Time
EST
Temp
°C
App
Temp
°C
Dew
Point
°C
Rel
Hum
%
Delta-T
°C
Wind Press
QNH
hPa
Press
MSL
hPa
Rain since
9am
mm
Dir  Spd
km/h
Gust
km/h
Spd
kts
Gust
kts
25/11:30pm - - - - - NNW 22 26 12 14 - - -
25/11:00pm - - - - - NNW 20 26 11 14 - - -
25/10:30pm - - - - - NNW 19 20 10 11 - - -
25/10:00pm - - - - - NNW 19 19 10 10 - - -
25/09:30pm - - - - - NW 19 20 10 11 - - -
25/09:00pm - - - - - NW 17 19 9 10 - - -
25/08:30pm - - - - - NW 20 24 11 13 - - -
25/08:00pm - - - - - NW 19 22 10 12 - - -
25/07:30pm - - - - - NW 17 20 9 11 - - -
25/07:00pm - - - - - NW 15 17 8 9 - - -
25/06:30pm - - - - - WNW 15 17 8 9 - - -
25/06:00pm - - - - - NW 15 19 8 10 - - -
25/05:30pm - - - - - NW 20 24 11 13 - - -
25/05:00pm - - - - - NW 20 24 11 13 - - -
25/04:30pm - - - - - NW 20 22 11 12 - - -
25/04:00pm - - - - - WNW 22 26 12 14 - - -
25/03:30pm - - - - - WNW 24 26 13 14 - - -
25/03:00pm - - - - - WNW 28 32 15 17 - - -
25/02:30pm - - - - - WNW 26 30 14 16 - - -
25/02:00pm - - - - - WNW 24 28 13 15 - - -
25/01:30pm - - - - - WNW 22 28 12 15 - - -
25/01:00pm - - - - - WNW 20 24 11 13 - - -
25/12:30pm - - - - - WNW 20 26 11 14 - - -
25/12:00pm - - - - - WNW 20 24 11 13 - - -
25/11:30am - - - - - WNW 26 30 14 16 - - -
25/11:00am - - - - - WNW 19 24 10 13 - - -
25/10:30am - - - - - WNW 24 30 13 16 - - -
25/10:00am - - - - - NW 22 26 12 14 - - -
25/09:30am - - - - - WNW 22 26 12 14 - - -
25/09:00am - - - - - WNW 26 30 14 16 - - -
25/08:30am - - - - - WNW 24 30 13 16 - - -
25/08:00am - - - - - WNW 26 32 14 17 - - -
25/07:30am - - - - - WNW 26 32 14 17 - - -
25/07:00am - - - - - WSW 13 17 7 9 - - -
25/06:30am - - - - - W 32 43 17 23 - - -
25/06:00am - - - - - W 30 39 16 21 - - -
25/05:30am - - - - - WNW 37 43 20 23 - - -
25/05:29am - - - - - WNW 37 43 20 23 - - -
25/05:00am - - - - - SW 28 41 15 22 - - -
25/04:41am - - - - - W 30 48 16 26 - - -
25/04:30am - - - - - WNW 32 39 17 21 - - -
25/04:00am - - - - - W 24 35 13 19 - - -
25/03:38am - - - - - WNW 28 44 15 24 - - -
25/03:30am - - - - - W 24 28 13 15 - - -
25/03:00am - - - - - W 37 50 20 27 - - -
25/02:55am - - - - - W 28 48 15 26 - - -
25/02:54am - - - - - W 24 44 13 24 - - -
25/02:30am - - - - - S 11 19 6 10 - - -
25/02:00am - - - - - WSW 7 15 4 8 - - -
25/01:30am - - - - - W 28 39 15 21 - - -
25/01:00am - - - - - SW 22 28 12 15 - - -
25/12:30am - - - - - SW 48 69 26 37 - - -
25/12:28am - - - - - SW 44 61 24 33 - - -
25/12:00am - - - - - WSW 35 41 19 22 - - -
 
Date/Time
EST
Temp
°C
App
Temp
°C
Dew
Point
°C
Rel
Hum
%
Delta-T
°C
Wind Press
QNH
hPa
Press
MSL
hPa
Rain since
9am
mm
Dir  Spd
km/h
Gust
km/h
Spd
kts
Gust
kts
24/11:30pm - - - - - WSW 35 41 19 22 - - -
24/11:15pm - - - - - SW 41 56 22 30 - - -
24/11:01pm - - - - - WSW 56 80 30 43 - - -
24/11:00pm - - - - - WSW 54 67 29 36 - - -
24/10:30pm - - - - - SW 39 50 21 27 - - -
24/10:00pm - - - - - WSW 46 67 25 36 - - -
24/09:54pm - - - - - WSW 41 65 22 35 - - -
24/09:51pm - - - - - WSW 39 48 21 26 - - -
24/09:30pm - - - - - SW 37 44 20 24 - - -
24/09:00pm - - - - - SSW 41 85 22 46 - - -
24/08:59pm - - - - - SSW 39 63 21 34 - - -
24/08:53pm - - - - - SW 43 61 23 33 - - -
24/08:47pm - - - - - WSW 37 57 20 31 - - -
24/08:30pm - - - - - SW 41 56 22 30 - - -
24/08:11pm - - - - - WSW 37 82 20 44 - - -
24/08:09pm - - - - - WSW 30 63 16 34 - - -
24/08:01pm - - - - - W 41 59 22 32 - - -
24/08:00pm - - - - - W 43 59 23 32 - - -
24/07:30pm - - - - - W 41 50 22 27 - - -
24/07:00pm - - - - - W 44 56 24 30 - - -
24/06:30pm - - - - - WNW 50 59 27 32 - - -
24/06:00pm - - - - - W 48 57 26 31 - - -
24/05:55pm - - - - - W 50 69 27 37 - - -
24/05:30pm - - - - - W 48 61 26 33 - - -
24/05:13pm - - - - - W 46 65 25 35 - - -
24/05:00pm - - - - - W 52 63 28 34 - - -
24/04:40pm - - - - - W 52 72 28 39 - - -
24/04:30pm - - - - - WNW 48 56 26 30 - - -
24/04:00pm - - - - - W 50 57 27 31 - - -
24/03:30pm - - - - - W 50 57 27 31 - - -
24/03:05pm - - - - - WSW 32 54 17 29 - - -
24/03:00pm - - - - - WSW 39 61 21 33 - - -
24/02:36pm - - - - - W 50 74 27 40 - - -
24/02:30pm - - - - - W 44 61 24 33 - - -
24/02:00pm - - - - - WNW 39 44 21 24 - - -
24/01:30pm - - - - - W 50 61 27 33 - - -
24/01:00pm - - - - - W 63 87 34 47 - - -
24/12:58pm - - - - - W 57 87 31 47 - - -
24/12:53pm - - - - - W 50 69 27 37 - - -
24/12:30pm - - - - - WNW 46 54 25 29 - - -
24/12:00pm - - - - - WNW 44 52 24 28 - - -
24/11:30am - - - - - WNW 43 48 23 26 - - -
24/11:00am - - - - - W 33 41 18 22 - - -
24/10:46am - - - - - WSW 44 54 24 29 - - -
24/10:30am - - - - - W 52 59 28 32 - - -
24/10:00am - - - - - W 52 59 28 32 - - -
24/09:30am - - - - - WNW 50 59 27 32 - - -
24/09:00am - - - - - WNW 48 57 26 31 - - -
24/08:30am - - - - - WNW 50 61 27 33 - - -
24/08:00am - - - - - WNW 50 59 27 32 - - -
24/07:43am - - - - - WNW 43 61 23 33 - - -
24/07:30am - - - - - NW 39 50 21 27 - - -
24/07:00am - - - - - WNW 37 46 20 25 - - -
24/06:40am - - - - - NW 37 56 20 30 - - -
24/06:30am - - - - - NW 33 39 18 21 - - -
24/06:00am - - - - - NW 32 37 17 20 - - -
24/05:30am - - - - - NW 26 35 14 19 - - -
24/05:00am - - - - - WNW 30 41 16 22 - - -
24/04:30am - - - - - WNW 32 39 17 21 - - -
24/04:00am - - - - - NW 32 37 17 20 - - -
24/03:30am - - - - - NW 32 35 17 19 - - -
24/03:00am - - - - - NNW 35 41 19 22 - - -
24/02:30am - - - - - NW 30 37 16 20 - - -
24/02:00am - - - - - NNW 30 33 16 18 - - -
24/01:30am - - - - - NW 39 46 21 25 - - -

Latest Capital City Observations: Canberra | Sydney | Melbourne | Brisbane | Adelaide | Perth | Hobart | Darwin

Other Formats:

Comma delimited format used in spreadsheet applications
http://www.bom.gov.au/fwo/IDV60901/IDV60901.94853.axf

JavaScript Object Notation format (JSON) in row-major order
http://www.bom.gov.au/fwo/IDV60901/IDV60901.94853.json